Inicio METAR Ruta Wind Satelite

Informe Meteorológico

Fecha: 2021/09/21 15:07:55 Local
2021.09.21 20:07 UTC


Operación:
SKMU 212000Z 00000KT 9999 FEW015 28/22 Q1007 RMK/A2976 =